sensor_id;sensor_type;location;lat;lon;timestamp;P1;durP1;ratioP1;P2;durP2;ratioP2
77078;SDS011;66004;55.096;38.760;2023-02-28T10:15:59;6.53;;;3.88;;
77078;SDS011;66004;55.096;38.760;2023-02-28T10:21:37;2.90;;;1.83;;
77078;SDS011;66004;55.096;38.760;2023-02-28T10:26:53;3.45;;;1.85;;
77078;SDS011;66004;55.096;38.760;2023-02-28T10:29:27;3.38;;;1.60;;
77078;SDS011;66004;55.096;38.760;2023-02-28T10:31:56;6.10;;;2.05;;
77078;SDS011;66004;55.096;38.760;2023-02-28T10:34:22;1.88;;;0.93;;
77078;SDS011;66004;55.096;38.760;2023-02-28T10:36:49;3.40;;;1.67;;
77078;SDS011;66004;55.096;38.760;2023-02-28T10:39:35;4.90;;;2.13;;
77078;SDS011;66004;55.096;38.760;2023-02-28T10:42:29;5.00;;;1.88;;
77078;SDS011;66004;55.096;38.760;2023-02-28T10:47:42;4.68;;;2.03;;
77078;SDS011;66004;55.096;38.760;2023-02-28T10:53:58;3.45;;;1.67;;
77078;SDS011;66004;55.096;38.760;2023-02-28T10:56:14;6.05;;;1.90;;
77078;SDS011;66004;55.096;38.760;2023-02-28T10:58:57;3.20;;;1.60;;
77078;SDS011;66004;55.096;38.760;2023-02-28T11:03:55;2.92;;;1.42;;
77078;SDS011;66004;55.096;38.760;2023-02-28T11:06:23;2.53;;;1.27;;
77078;SDS011;66004;55.096;38.760;2023-02-28T11:08:55;4.50;;;1.75;;
77078;SDS011;66004;55.096;38.760;2023-02-28T11:11:24;4.13;;;2.17;;
77078;SDS011;66004;55.096;38.760;2023-02-28T11:13:54;2.92;;;1.17;;
77078;SDS011;66004;55.096;38.760;2023-02-28T11:16:22;3.33;;;1.63;;
77078;SDS011;66004;55.096;38.760;2023-02-28T11:18:58;3.70;;;1.92;;
77078;SDS011;66004;55.096;38.760;2023-02-28T11:21:32;3.25;;;1.23;;
77078;SDS011;66004;55.096;38.760;2023-02-28T11:24:06;2.65;;;1.48;;
77078;SDS011;66004;55.096;38.760;2023-02-28T11:26:48;3.97;;;2.03;;
77078;SDS011;66004;55.096;38.760;2023-02-28T11:29:18;5.30;;;1.80;;
77078;SDS011;66004;55.096;38.760;2023-02-28T11:32:25;2.55;;;1.50;;
77078;SDS011;66004;55.096;38.760;2023-02-28T11:34:45;3.67;;;1.73;;
77078;SDS011;66004;55.096;38.760;2023-02-28T11:37:13;4.18;;;1.90;;
77078;SDS011;66004;55.096;38.760;2023-02-28T11:39:41;4.43;;;2.25;;
77078;SDS011;66004;55.096;38.760;2023-02-28T11:42:27;2.72;;;1.40;;
77078;SDS011;66004;55.096;38.760;2023-02-28T11:55:20;4.70;;;2.00;;
77078;SDS011;66004;55.096;38.760;2023-02-28T12:06:29;2.47;;;0.75;;
77078;SDS011;66004;55.096;38.760;2023-02-28T12:12:04;1.90;;;1.30;;
77078;SDS011;66004;55.096;38.760;2023-02-28T12:28:38;3.80;;;2.08;;
77078;SDS011;66004;55.096;38.760;2023-02-28T12:31:27;3.20;;;1.88;;
77078;SDS011;66004;55.096;38.760;2023-02-28T12:33:58;4.10;;;2.10;;
77078;SDS011;66004;55.096;38.760;2023-02-28T12:36:27;4.45;;;1.80;;
77078;SDS011;66004;55.096;38.760;2023-02-28T12:38:55;3.92;;;2.35;;
77078;SDS011;66004;55.096;38.760;2023-02-28T12:44:44;2.45;;;1.33;;
77078;SDS011;66004;55.096;38.760;2023-02-28T12:47:09;3.10;;;1.60;;
77078;SDS011;66004;55.096;38.760;2023-02-28T12:49:46;6.43;;;1.88;;
77078;SDS011;66004;55.096;38.760;2023-02-28T12:52:17;4.22;;;2.00;;
77078;SDS011;66004;55.096;38.760;2023-02-28T12:54:55;3.97;;;1.48;;
77078;SDS011;66004;55.096;38.760;2023-02-28T12:57:36;4.03;;;1.80;;
77078;SDS011;66004;55.096;38.760;2023-02-28T13:00:14;4.25;;;1.63;;
77078;SDS011;66004;55.096;38.760;2023-02-28T13:14:06;6.22;;;2.10;;
77078;SDS011;66004;55.096;38.760;2023-02-28T13:16:48;5.68;;;2.65;;
77078;SDS011;66004;55.096;38.760;2023-02-28T13:19:16;3.42;;;1.60;;
77078;SDS011;66004;55.096;38.760;2023-02-28T13:21:43;4.60;;;1.98;;
77078;SDS011;66004;55.096;38.760;2023-02-28T13:24:10;4.15;;;2.20;;
77078;SDS011;66004;55.096;38.760;2023-02-28T13:34:33;4.03;;;2.00;;
77078;SDS011;66004;55.096;38.760;2023-02-28T13:39:58;4.25;;;1.92;;
77078;SDS011;66004;55.096;38.760;2023-02-28T13:42:48;3.15;;;1.52;;
77078;SDS011;66004;55.096;38.760;2023-02-28T13:47:58;3.90;;;1.55;;
77078;SDS011;66004;55.096;38.760;2023-02-28T13:58:48;6.57;;;1.83;;
77078;SDS011;66004;55.096;38.760;2023-02-28T14:07:16;2.33;;;1.13;;
77078;SDS011;66004;55.096;38.760;2023-02-28T14:09:50;4.85;;;2.05;;
77078;SDS011;66004;55.096;38.760;2023-02-28T14:17:55;3.60;;;1.60;;
77078;SDS011;66004;55.096;38.760;2023-02-28T14:20:24;1.77;;;0.90;;
77078;SDS011;66004;55.096;38.760;2023-02-28T14:28:14;2.90;;;1.63;;
77078;SDS011;66004;55.096;38.760;2023-02-28T14:38:34;4.07;;;1.88;;
77078;SDS011;66004;55.096;38.760;2023-02-28T14:41:14;5.65;;;1.77;;
77078;SDS011;66004;55.096;38.760;2023-02-28T14:43:49;3.55;;;1.67;;
77078;SDS011;66004;55.096;38.760;2023-02-28T14:46:19;4.50;;;1.80;;
77078;SDS011;66004;55.096;38.760;2023-02-28T14:48:46;5.60;;;2.20;;
77078;SDS011;66004;55.096;38.760;2023-02-28T16:56:20;5.93;;;2.85;;
77078;SDS011;66004;55.096;38.760;2023-02-28T16:58:49;6.22;;;2.45;;
77078;SDS011;66004;55.096;38.760;2023-02-28T17:01:16;6.05;;;2.50;;
77078;SDS011;66004;55.096;38.760;2023-02-28T17:03:50;3.75;;;1.85;;
77078;SDS011;66004;55.096;38.760;2023-02-28T17:06:22;3.55;;;2.38;;
77078;SDS011;66004;55.096;38.760;2023-02-28T17:08:52;4.22;;;2.30;;
77078;SDS011;66004;55.096;38.760;2023-02-28T17:11:19;5.53;;;3.08;;
77078;SDS011;66004;55.096;38.760;2023-02-28T17:13:45;4.70;;;2.08;;
77078;SDS011;66004;55.096;38.760;2023-02-28T17:16:17;6.30;;;2.75;;
77078;SDS011;66004;55.096;38.760;2023-02-28T17:18:47;5.10;;;1.65;;
77078;SDS011;66004;55.096;38.760;2023-02-28T17:21:16;6.05;;;2.58;;
77078;SDS011;66004;55.096;38.760;2023-02-28T17:23:42;3.80;;;2.03;;
77078;SDS011;66004;55.096;38.760;2023-02-28T17:26:15;6.65;;;2.72;;
77078;SDS011;66004;55.096;38.760;2023-02-28T17:28:45;7.15;;;3.10;;
77078;SDS011;66004;55.096;38.760;2023-02-28T17:33:36;4.00;;;1.77;;
77078;SDS011;66004;55.096;38.760;2023-02-28T17:36:02;4.25;;;2.20;;
77078;SDS011;66004;55.096;38.760;2023-02-28T17:38:28;5.20;;;2.15;;
77078;SDS011;66004;55.096;38.760;2023-02-28T17:40:56;3.80;;;1.40;;
77078;SDS011;66004;55.096;38.760;2023-02-28T17:43:25;5.20;;;2.83;;
77078;SDS011;66004;55.096;38.760;2023-02-28T17:46:02;4.28;;;2.70;;
77078;SDS011;66004;55.096;38.760;2023-02-28T17:48:31;4.90;;;2.40;;
77078;SDS011;66004;55.096;38.760;2023-02-28T17:50:58;4.65;;;2.15;;
77078;SDS011;66004;55.096;38.760;2023-02-28T17:53:24;6.32;;;2.90;;
77078;SDS011;66004;55.096;38.760;2023-02-28T17:55:50;4.93;;;2.30;;
77078;SDS011;66004;55.096;38.760;2023-02-28T17:58:16;5.47;;;1.85;;
77078;SDS011;66004;55.096;38.760;2023-02-28T18:00:43;4.40;;;2.20;;
77078;SDS011;66004;55.096;38.760;2023-02-28T18:03:10;2.72;;;1.67;;
77078;SDS011;66004;55.096;38.760;2023-02-28T18:05:38;2.72;;;1.65;;
77078;SDS011;66004;55.096;38.760;2023-02-28T18:08:05;4.05;;;1.92;;
77078;SDS011;66004;55.096;38.760;2023-02-28T18:10:31;4.38;;;2.22;;
77078;SDS011;66004;55.096;38.760;2023-02-28T18:12:58;5.47;;;2.22;;
77078;SDS011;66004;55.096;38.760;2023-02-28T18:15:24;4.00;;;1.88;;
77078;SDS011;66004;55.096;38.760;2023-02-28T18:17:49;5.97;;;2.33;;
77078;SDS011;66004;55.096;38.760;2023-02-28T18:20:17;4.78;;;1.98;;
77078;SDS011;66004;55.096;38.760;2023-02-28T18:22:43;4.20;;;1.73;;
77078;SDS011;66004;55.096;38.760;2023-02-28T18:25:10;3.28;;;1.48;;
77078;SDS011;66004;55.096;38.760;2023-02-28T18:27:41;7.07;;;2.50;;
77078;SDS011;66004;55.096;38.760;2023-02-28T18:30:18;2.67;;;1.45;;
77078;SDS011;66004;55.096;38.760;2023-02-28T18:32:45;3.85;;;2.00;;
77078;SDS011;66004;55.096;38.760;2023-02-28T18:35:12;3.10;;;1.60;;
77078;SDS011;66004;55.096;38.760;2023-02-28T18:37:37;5.65;;;1.52;;
77078;SDS011;66004;55.096;38.760;2023-02-28T18:40:03;3.75;;;2.22;;
77078;SDS011;66004;55.096;38.760;2023-02-28T18:42:30;4.75;;;1.70;;
77078;SDS011;66004;55.096;38.760;2023-02-28T18:44:55;3.10;;;1.67;;
77078;SDS011;66004;55.096;38.760;2023-02-28T18:47:21;4.30;;;2.17;;
77078;SDS011;66004;55.096;38.760;2023-02-28T18:49:47;3.17;;;1.70;;
77078;SDS011;66004;55.096;38.760;2023-02-28T18:52:12;3.45;;;1.33;;
77078;SDS011;66004;55.096;38.760;2023-02-28T18:54:38;2.63;;;1.38;;
77078;SDS011;66004;55.096;38.760;2023-02-28T18:57:03;3.58;;;1.60;;
77078;SDS011;66004;55.096;38.760;2023-02-28T18:59:29;2.50;;;1.33;;
77078;SDS011;66004;55.096;38.760;2023-02-28T19:01:55;4.43;;;1.98;;
77078;SDS011;66004;55.096;38.760;2023-02-28T19:04:22;3.45;;;1.73;;
77078;SDS011;66004;55.096;38.760;2023-02-28T19:06:48;5.05;;;2.33;;
77078;SDS011;66004;55.096;38.760;2023-02-28T19:09:13;6.43;;;3.35;;
77078;SDS011;66004;55.096;38.760;2023-02-28T19:11:39;3.92;;;1.17;;
77078;SDS011;66004;55.096;38.760;2023-02-28T19:14:05;3.85;;;1.13;;
77078;SDS011;66004;55.096;38.760;2023-02-28T19:16:30;4.47;;;1.70;;
77078;SDS011;66004;55.096;38.760;2023-02-28T19:18:56;1.63;;;1.00;;
77078;SDS011;66004;55.096;38.760;2023-02-28T19:21:22;3.33;;;0.98;;
77078;SDS011;66004;55.096;38.760;2023-02-28T19:23:48;2.03;;;0.73;;
77078;SDS011;66004;55.096;38.760;2023-02-28T19:26:18;1.13;;;0.75;;
77078;SDS011;66004;55.096;38.760;2023-02-28T19:28:45;2.92;;;0.80;;
77078;SDS011;66004;55.096;38.760;2023-02-28T19:31:21;1.70;;;0.82;;
77078;SDS011;66004;55.096;38.760;2023-02-28T19:33:49;3.28;;;0.40;;
77078;SDS011;66004;55.096;38.760;2023-02-28T19:36:18;2.92;;;1.13;;
77078;SDS011;66004;55.096;38.760;2023-02-28T19:41:10;4.20;;;0.55;;
77078;SDS011;66004;55.096;38.760;2023-02-28T19:43:37;2.05;;;0.77;;
77078;SDS011;66004;55.096;38.760;2023-02-28T19:46:03;3.42;;;0.57;;
77078;SDS011;66004;55.096;38.760;2023-02-28T19:48:29;7.53;;;2.08;;
77078;SDS011;66004;55.096;38.760;2023-02-28T19:50:55;6.05;;;1.48;;
77078;SDS011;66004;55.096;38.760;2023-02-28T19:53:21;15.13;;;4.10;;
77078;SDS011;66004;55.096;38.760;2023-02-28T19:55:47;10.13;;;2.90;;
77078;SDS011;66004;55.096;38.760;2023-02-28T19:58:12;9.65;;;1.23;;
77078;SDS011;66004;55.096;38.760;2023-02-28T20:00:39;2.42;;;0.50;;
77078;SDS011;66004;55.096;38.760;2023-02-28T20:03:05;0.50;;;0.30;;
77078;SDS011;66004;55.096;38.760;2023-02-28T20:05:30;2.80;;;0.60;;
77078;SDS011;66004;55.096;38.760;2023-02-28T20:07:56;1.42;;;0.32;;
77078;SDS011;66004;55.096;38.760;2023-02-28T20:10:21;0.70;;;0.40;;
77078;SDS011;66004;55.096;38.760;2023-02-28T20:12:47;1.02;;;0.43;;
77078;SDS011;66004;55.096;38.760;2023-02-28T20:15:12;1.65;;;0.63;;
77078;SDS011;66004;55.096;38.760;2023-02-28T20:17:38;0.55;;;0.30;;
77078;SDS011;66004;55.096;38.760;2023-02-28T20:20:06;1.60;;;0.50;;
77078;SDS011;66004;55.096;38.760;2023-02-28T20:22:35;1.13;;;0.30;;
77078;SDS011;66004;55.096;38.760;2023-02-28T20:25:01;2.15;;;0.45;;
77078;SDS011;66004;55.096;38.760;2023-02-28T20:29:53;1.75;;;0.40;;
77078;SDS011;66004;55.096;38.760;2023-02-28T20:32:19;3.03;;;0.55;;
77078;SDS011;66004;55.096;38.760;2023-02-28T20:34:44;2.47;;;0.40;;
77078;SDS011;66004;55.096;38.760;2023-02-28T20:37:09;2.47;;;0.30;;
77078;SDS011;66004;55.096;38.760;2023-02-28T20:39:36;3.20;;;0.38;;
77078;SDS011;66004;55.096;38.760;2023-02-28T20:42:01;1.55;;;0.40;;
77078;SDS011;66004;55.096;38.760;2023-02-28T20:44:27;2.03;;;0.63;;
77078;SDS011;66004;55.096;38.760;2023-02-28T20:46:52;4.97;;;0.70;;
77078;SDS011;66004;55.096;38.760;2023-02-28T20:49:18;1.52;;;0.85;;
